createdAt,value
2022-08-12T00:00:02.577Z,22.84
2022-08-12T00:02:48.120Z,22.77
2022-08-12T00:05:33.857Z,22.74
2022-08-12T00:08:28.508Z,22.73
2022-08-12T00:11:14.547Z,22.70
2022-08-12T00:14:00.546Z,22.71
2022-08-12T00:16:47.561Z,22.70
2022-08-12T00:19:33.563Z,22.70
2022-08-12T00:22:19.664Z,22.70
2022-08-12T00:25:05.968Z,22.68
2022-08-12T00:27:51.968Z,22.65
2022-08-12T00:30:37.555Z,22.64
2022-08-12T00:33:23.240Z,22.61
2022-08-12T00:36:34.609Z,22.60
2022-08-12T00:39:17.831Z,22.60
2022-08-12T00:42:03.462Z,22.57
2022-08-12T00:44:30.410Z,22.55
2022-08-12T00:47:01.969Z,22.54
2022-08-12T00:49:30.040Z,22.52
2022-08-12T00:52:08.061Z,22.49
2022-08-12T00:54:57.276Z,22.49
2022-08-12T00:57:33.083Z,22.48
2022-08-12T01:00:01.789Z,22.46
2022-08-12T01:02:33.523Z,22.45
2022-08-12T01:05:38.869Z,22.45
2022-08-12T01:08:24.399Z,22.43
2022-08-12T01:11:10.475Z,22.46
2022-08-12T01:13:41.129Z,22.45
2022-08-12T01:16:08.762Z,22.44
2022-08-12T01:18:37.074Z,22.44
2022-08-12T01:21:12.334Z,22.46
2022-08-12T01:24:30.442Z,22.46
2022-08-12T01:26:58.651Z,22.44
2022-08-12T01:29:28.639Z,22.44
2022-08-12T01:32:06.507Z,22.44
2022-08-12T01:34:39.016Z,22.43
2022-08-12T01:37:07.874Z,22.41
2022-08-12T01:40:31.377Z,22.43
2022-08-12T01:42:44.016Z,22.42
2022-08-12T01:45:12.595Z,22.40
2022-08-12T01:47:58.599Z,22.40
2022-08-12T01:50:30.258Z,22.40
2022-08-12T01:53:05.573Z,22.41
2022-08-12T01:55:35.415Z,22.43
2022-08-12T01:58:12.012Z,22.45
2022-08-12T02:00:55.450Z,22.45
2022-08-12T02:04:10.134Z,22.45
2022-08-12T02:07:05.111Z,22.49
2022-08-12T02:10:50.693Z,22.53
2022-08-12T02:13:10.161Z,22.56
2022-08-12T02:15:53.514Z,22.57
2022-08-12T02:18:25.072Z,22.60
2022-08-12T02:21:05.844Z,22.62
2022-08-12T02:23:34.847Z,22.63
2022-08-12T02:26:07.742Z,22.64
2022-08-12T02:28:34.698Z,22.68
2022-08-12T02:31:04.891Z,22.72
2022-08-12T02:33:32.831Z,22.75
2022-08-12T02:36:01.885Z,22.77
2022-08-12T02:38:29.347Z,22.79
2022-08-12T02:40:56.292Z,22.82
2022-08-12T02:43:46.898Z,22.83
2022-08-12T02:46:15.089Z,22.84
2022-08-12T02:48:48.322Z,22.85
2022-08-12T02:51:20.542Z,22.86
2022-08-12T02:54:02.950Z,22.89
2022-08-12T02:56:34.012Z,22.92
2022-08-12T02:59:01.063Z,22.94
2022-08-12T03:01:35.827Z,22.97
2022-08-12T03:04:43.909Z,23.00
2022-08-12T03:07:37.132Z,23.01
2022-08-12T03:10:18.148Z,23.04
2022-08-12T03:13:04.354Z,23.07
2022-08-12T03:15:31.404Z,23.10
2022-08-12T03:18:24.253Z,23.11
2022-08-12T03:20:49.888Z,23.13
2022-08-12T03:23:17.528Z,23.16
2022-08-12T03:25:59.155Z,23.20
2022-08-12T03:28:45.061Z,23.23
2022-08-12T03:31:12.000Z,23.24
2022-08-12T03:34:00.628Z,23.27
2022-08-12T03:36:32.459Z,23.29
2022-08-12T03:39:19.529Z,23.30
2022-08-12T03:42:03.706Z,23.31
2022-08-12T03:45:20.726Z,23.32
2022-08-12T03:48:18.977Z,23.33
2022-08-12T03:51:06.034Z,23.36
2022-08-12T03:53:52.550Z,23.37
2022-08-12T03:56:38.129Z,23.39
2022-08-12T03:59:24.741Z,23.42
2022-08-12T04:01:58.285Z,23.45
2022-08-12T04:04:29.802Z,23.49
2022-08-12T04:06:58.380Z,23.52
2022-08-12T04:09:25.428Z,23.54
2022-08-12T04:12:11.014Z,23.57
2022-08-12T04:14:38.166Z,23.62
2022-08-12T04:17:05.319Z,23.68
2022-08-12T04:19:32.274Z,23.73
2022-08-12T04:22:02.932Z,23.81
2022-08-12T04:24:35.632Z,23.89
2022-08-12T04:27:05.645Z,23.97
2022-08-12T04:30:31.589Z,24.07
2022-08-12T04:32:23.791Z,24.15
2022-08-12T04:34:51.632Z,24.23
2022-08-12T04:37:18.773Z,24.32
2022-08-12T04:39:45.977Z,24.38
2022-08-12T04:42:13.390Z,24.43
2022-08-12T04:44:40.430Z,24.46
2022-08-12T04:47:12.122Z,24.50
2022-08-12T04:49:39.311Z,24.52
2022-08-12T04:52:06.119Z,24.54
2022-08-12T04:54:34.272Z,24.56
2022-08-12T04:57:04.351Z,24.59
2022-08-12T04:59:46.711Z,24.61
2022-08-12T05:02:21.599Z,24.62
2022-08-12T05:04:52.585Z,24.64
2022-08-12T05:07:20.268Z,24.67
2022-08-12T05:10:01.796Z,24.70
2022-08-12T05:12:38.112Z,24.77
2022-08-12T05:15:19.418Z,24.80
2022-08-12T05:17:53.161Z,24.82
2022-08-12T05:20:20.952Z,24.84
2022-08-12T05:22:47.939Z,24.86
2022-08-12T05:25:17.765Z,24.86
2022-08-12T05:27:58.536Z,24.90
2022-08-12T05:30:27.855Z,24.93
2022-08-12T05:32:59.822Z,24.95
2022-08-12T05:35:28.114Z,24.94
2022-08-12T05:38:15.117Z,24.95
2022-08-12T05:40:42.254Z,24.99
2022-08-12T05:43:09.231Z,25.02
2022-08-12T05:45:38.251Z,25.06
2022-08-12T05:48:07.323Z,25.12
2022-08-12T05:50:35.947Z,25.18
2022-08-12T05:53:03.153Z,25.24
2022-08-12T05:55:31.460Z,25.37
2022-08-12T05:57:58.690Z,25.49
2022-08-12T06:00:26.040Z,25.62
2022-08-12T06:03:02.506Z,25.77
2022-08-12T06:05:30.505Z,25.93
2022-08-12T06:08:01.757Z,26.08
2022-08-12T06:10:32.593Z,26.19
2022-08-12T06:13:03.355Z,26.25
2022-08-12T06:15:31.214Z,26.27
2022-08-12T06:18:29.632Z,26.33
2022-08-12T06:21:00.245Z,26.43
2022-08-12T06:23:29.968Z,26.57
2022-08-12T06:25:57.706Z,26.78
2022-08-12T06:28:25.511Z,26.97
2022-08-12T06:33:56.001Z,27.40
2022-08-12T06:36:30.086Z,27.62
2022-08-12T06:38:59.860Z,27.84
2022-08-12T06:42:30.566Z,28.01
2022-08-12T06:44:32.958Z,28.21
2022-08-12T06:47:00.440Z,28.34
2022-08-12T06:49:28.528Z,28.43
2022-08-12T06:51:56.654Z,28.53
2022-08-12T06:54:31.629Z,28.68
2022-08-12T06:57:04.942Z,28.83
2022-08-12T06:59:50.690Z,28.99
2022-08-12T07:02:19.999Z,29.15
2022-08-12T07:04:48.376Z,29.34
2022-08-12T07:07:15.529Z,29.54
2022-08-12T07:10:05.199Z,29.73
2022-08-12T07:12:30.830Z,29.92
2022-08-12T07:14:58.811Z,30.08
2022-08-12T07:17:26.544Z,30.20
2022-08-12T07:19:54.038Z,30.27
2022-08-12T07:22:23.492Z,30.37
2022-08-12T07:25:10.561Z,30.50
2022-08-12T07:27:42.537Z,30.62
2022-08-12T07:30:10.349Z,30.69
2022-08-12T07:32:37.373Z,30.70
2022-08-12T07:35:05.025Z,30.74
2022-08-12T07:37:32.684Z,30.79
2022-08-12T07:40:01.044Z,30.79
2022-08-12T07:42:29.742Z,30.83
2022-08-12T07:44:56.901Z,30.84
2022-08-12T07:47:24.681Z,30.80
2022-08-12T07:50:04.270Z,30.77
2022-08-12T07:52:43.060Z,30.75
2022-08-12T07:55:10.642Z,30.68
2022-08-12T07:57:49.436Z,30.53
2022-08-12T08:00:17.212Z,30.34
2022-08-12T08:02:44.248Z,30.18
2022-08-12T08:05:11.295Z,30.07
2022-08-12T08:07:38.952Z,29.95
2022-08-12T08:10:07.537Z,29.84
2022-08-12T08:12:53.116Z,29.80
2022-08-12T08:15:44.422Z,29.77
2022-08-12T08:18:15.928Z,29.78
2022-08-12T08:20:54.190Z,29.75
2022-08-12T08:23:21.236Z,29.71
2022-08-12T08:25:50.331Z,29.66
2022-08-12T08:28:17.584Z,29.60
2022-08-12T08:30:46.067Z,29.55
2022-08-12T08:33:23.545Z,29.53
2022-08-12T08:36:03.508Z,29.58
2022-08-12T08:38:32.958Z,29.64
2022-08-12T08:42:15.603Z,29.70
2022-08-12T08:44:11.424Z,29.76
2022-08-12T08:46:40.096Z,29.78
2022-08-12T08:49:07.193Z,29.81
2022-08-12T08:51:34.445Z,29.88
2022-08-12T08:54:01.605Z,29.93
2022-08-12T08:56:31.582Z,29.99
2022-08-12T08:58:58.838Z,30.01
2022-08-12T09:01:26.846Z,30.03
2022-08-12T09:05:09.662Z,29.97
2022-08-12T09:06:59.769Z,29.88
2022-08-12T09:09:34.012Z,29.85
2022-08-12T09:12:32.653Z,29.81
2022-08-12T09:15:16.825Z,29.79
2022-08-12T09:17:56.923Z,29.83
2022-08-12T09:24:00.569Z,29.99
2022-08-12T09:26:04.228Z,30.10
2022-08-12T09:28:33.085Z,30.25
2022-08-12T09:31:00.816Z,30.48
2022-08-12T09:34:28.937Z,30.75
2022-08-12T09:36:30.729Z,31.12
2022-08-12T09:40:00.901Z,31.62
2022-08-12T09:42:42.922Z,32.18
2022-08-12T09:45:23.369Z,32.75
2022-08-12T09:47:59.438Z,33.19
2022-08-12T09:50:27.854Z,33.51
2022-08-12T09:53:14.901Z,33.61
2022-08-12T09:56:40.201Z,33.51
2022-08-12T09:58:57.595Z,33.43
2022-08-12T10:01:35.155Z,33.33
2022-08-12T10:04:19.356Z,33.20
2022-08-12T10:06:54.299Z,33.03
2022-08-12T10:09:28.206Z,32.90
2022-08-12T10:12:14.791Z,32.89
2022-08-12T10:14:58.323Z,32.99
2022-08-12T10:17:25.373Z,33.21
2022-08-12T10:19:53.106Z,33.51
2022-08-12T10:22:38.090Z,33.78
2022-08-12T10:26:34.884Z,33.97
2022-08-12T10:28:33.231Z,34.09
2022-08-12T10:31:01.524Z,34.19
2022-08-12T10:33:33.650Z,34.33
2022-08-12T10:36:12.614Z,34.38
2022-08-12T10:38:43.888Z,34.29
2022-08-12T10:41:57.145Z,34.22
2022-08-12T10:44:17.732Z,34.21
2022-08-12T10:46:49.924Z,34.26
2022-08-12T10:50:02.981Z,34.32
2022-08-12T10:52:34.298Z,34.30
2022-08-12T10:54:56.307Z,34.14
2022-08-12T10:58:13.331Z,34.01
2022-08-12T11:00:31.449Z,33.93
2022-08-12T11:04:35.975Z,33.81
2022-08-12T11:07:07.995Z,33.62
2022-08-12T11:08:43.021Z,33.48
2022-08-12T11:11:27.728Z,33.38
2022-08-12T11:14:05.984Z,33.42
2022-08-12T11:16:40.199Z,33.59
2022-08-12T11:19:27.940Z,33.77
2022-08-12T11:22:01.358Z,33.98
2022-08-12T11:24:32.300Z,34.25
2022-08-12T11:27:07.347Z,34.49
2022-08-12T11:30:02.611Z,34.65
2022-08-12T11:32:22.644Z,34.73
2022-08-12T11:34:54.947Z,34.67
2022-08-12T11:37:26.325Z,34.56
2022-08-12T11:42:35.909Z,34.77
2022-08-12T11:45:10.593Z,35.01
2022-08-12T11:47:40.213Z,35.15
2022-08-12T11:50:11.896Z,35.29
2022-08-12T11:52:55.855Z,35.49
2022-08-12T11:55:24.821Z,35.73
2022-08-12T11:58:40.481Z,35.86
2022-08-12T12:03:44.075Z,36.09
2022-08-12T12:06:18.043Z,36.30
2022-08-12T12:08:51.009Z,36.47
2022-08-12T12:11:20.043Z,36.60
2022-08-12T12:14:07.414Z,36.72
2022-08-12T12:16:39.591Z,36.86
2022-08-12T12:19:10.150Z,36.97
2022-08-12T12:21:47.019Z,37.03
2022-08-12T12:24:21.401Z,36.97
2022-08-12T12:26:59.755Z,36.76
2022-08-12T12:30:18.338Z,36.54
2022-08-12T12:32:28.874Z,36.39
2022-08-12T12:35:13.981Z,36.41
2022-08-12T12:38:12.293Z,36.53
2022-08-12T12:40:50.397Z,36.77
2022-08-12T12:43:42.577Z,37.08
2022-08-12T12:46:05.641Z,37.26
2022-08-12T12:48:32.680Z,37.21
2022-08-12T12:51:48.385Z,37.14
2022-08-12T12:54:08.344Z,36.88
2022-08-12T12:56:43.117Z,36.55
2022-08-12T12:59:56.479Z,36.22
2022-08-12T13:01:59.546Z,35.80
2022-08-12T13:04:35.151Z,35.24
2022-08-12T13:07:05.850Z,34.53
2022-08-12T13:09:36.258Z,33.80
2022-08-12T13:12:08.091Z,33.06
2022-08-12T13:14:35.343Z,32.37
2022-08-12T13:17:09.756Z,31.89
2022-08-12T13:19:45.169Z,31.44
2022-08-12T13:22:18.785Z,31.02
2022-08-12T13:24:55.092Z,30.68
2022-08-12T13:27:28.439Z,30.34
2022-08-12T13:30:10.795Z,29.76
2022-08-12T13:32:56.851Z,29.04
2022-08-12T13:36:02.735Z,28.48
2022-08-12T13:38:34.716Z,28.17
2022-08-12T13:41:03.973Z,27.99
2022-08-12T13:43:40.325Z,27.87
2022-08-12T13:46:12.419Z,27.80
2022-08-12T13:48:45.358Z,27.79
2022-08-12T13:51:14.371Z,27.75
2022-08-12T13:53:57.605Z,27.66
2022-08-12T13:56:33.479Z,27.53
2022-08-12T13:59:07.976Z,27.38
2022-08-12T14:01:40.726Z,27.24
2022-08-12T14:04:11.459Z,27.13
2022-08-12T14:06:40.378Z,27.05
2022-08-12T14:09:17.551Z,26.96
2022-08-12T14:11:51.207Z,26.93
2022-08-12T14:14:31.417Z,26.99
2022-08-12T14:17:05.583Z,27.05
2022-08-12T14:19:48.585Z,27.13
2022-08-12T14:22:26.041Z,27.21
2022-08-12T14:24:54.213Z,27.23
2022-08-12T14:28:02.536Z,27.18
2022-08-12T14:30:15.725Z,27.04
2022-08-12T14:32:50.904Z,26.90
2022-08-12T14:35:21.619Z,26.76
2022-08-12T14:37:57.245Z,26.64
2022-08-12T14:40:29.136Z,26.57
2022-08-12T14:42:57.205Z,26.51
2022-08-12T14:45:44.336Z,26.45
2022-08-12T14:48:12.752Z,26.38
2022-08-12T14:51:09.587Z,26.34
2022-08-12T14:59:24.131Z,26.22
2022-08-12T15:01:52.117Z,26.17
2022-08-12T15:04:26.187Z,26.12
2022-08-12T15:06:53.410Z,26.06
2022-08-12T15:09:28.720Z,25.99
2022-08-12T15:12:03.763Z,25.90
2022-08-12T15:14:31.999Z,25.83
2022-08-12T15:17:00.465Z,25.79
2022-08-12T15:20:30.824Z,25.78
2022-08-12T15:22:37.939Z,25.77
2022-08-12T15:25:07.244Z,25.78
2022-08-12T15:28:03.815Z,25.79
2022-08-12T15:30:30.281Z,25.80
2022-08-12T15:32:57.490Z,25.80
2022-08-12T15:35:27.451Z,25.80
2022-08-12T15:38:09.342Z,25.85
2022-08-12T15:40:46.811Z,25.87
2022-08-12T15:43:35.401Z,25.91
2022-08-12T15:46:04.823Z,25.98
2022-08-12T15:48:33.103Z,25.98
2022-08-12T15:51:02.211Z,25.97
2022-08-12T15:53:54.690Z,25.96
2022-08-12T15:56:29.606Z,25.95
2022-08-12T15:58:59.174Z,25.97
2022-08-12T16:01:35.648Z,26.00
2022-08-12T16:04:05.220Z,25.99
2022-08-12T16:09:55.932Z,25.97
2022-08-12T16:12:12.175Z,25.98
2022-08-12T16:14:39.640Z,25.99
2022-08-12T16:17:08.955Z,26.01
2022-08-12T16:20:03.459Z,26.01
2022-08-12T16:22:28.535Z,26.02
2022-08-12T16:24:56.929Z,25.96
2022-08-12T16:27:26.134Z,25.89
2022-08-12T16:29:57.757Z,25.82
2022-08-12T16:32:31.008Z,25.74
2022-08-12T16:35:00.029Z,25.67
2022-08-12T16:38:05.042Z,25.62
2022-08-12T16:40:18.865Z,25.57
2022-08-12T16:42:54.344Z,25.54
2022-08-12T16:45:32.043Z,25.53
2022-08-12T16:48:34.614Z,25.50
2022-08-12T16:51:06.057Z,25.47
2022-08-12T16:53:44.331Z,25.44
2022-08-12T16:56:14.547Z,25.39
2022-08-12T16:58:42.302Z,25.33
2022-08-12T17:01:14.008Z,25.28
2022-08-12T17:03:52.418Z,25.22
2022-08-12T17:06:22.211Z,25.16
2022-08-12T17:08:56.557Z,25.10
2022-08-12T17:11:23.919Z,25.04
2022-08-12T17:13:53.444Z,24.98
2022-08-12T17:16:21.438Z,24.91
2022-08-12T17:18:57.323Z,24.83
2022-08-12T17:21:41.308Z,24.75
2022-08-12T17:24:15.137Z,24.65
2022-08-12T17:26:49.169Z,24.57
2022-08-12T17:29:32.414Z,24.49
2022-08-12T17:32:08.962Z,24.43
2022-08-12T17:34:54.552Z,24.39
2022-08-12T17:37:21.719Z,24.36
2022-08-12T17:40:15.547Z,24.33
2022-08-12T17:42:38.537Z,24.29
2022-08-12T17:45:15.570Z,24.26
2022-08-12T17:48:01.747Z,24.23
2022-08-12T17:50:34.426Z,24.22
2022-08-12T17:53:03.244Z,24.21
2022-08-12T17:55:40.185Z,24.19
2022-08-12T17:58:12.953Z,24.17
2022-08-12T18:00:44.261Z,24.16
2022-08-12T18:04:05.089Z,24.14
2022-08-12T18:06:08.522Z,24.11
2022-08-12T18:08:35.895Z,24.07
2022-08-12T18:12:03.908Z,24.04
2022-08-12T18:14:09.709Z,24.02
2022-08-12T18:16:42.089Z,24.00
2022-08-12T18:19:09.244Z,23.96
2022-08-12T18:22:02.214Z,23.95
2022-08-12T18:24:29.588Z,23.93
2022-08-12T18:26:56.826Z,23.92
2022-08-12T18:29:27.109Z,23.91
2022-08-12T18:32:53.853Z,23.89
2022-08-12T18:35:10.280Z,23.83
2022-08-12T18:37:42.146Z,23.78
2022-08-12T18:40:29.423Z,23.73
2022-08-12T18:42:57.037Z,23.70
2022-08-12T18:45:46.556Z,23.70
2022-08-12T18:48:15.468Z,23.69
2022-08-12T18:50:49.392Z,23.69
2022-08-12T18:54:06.977Z,23.69
2022-08-12T18:56:05.300Z,23.69
2022-08-12T18:58:37.681Z,23.68
2022-08-12T19:01:07.261Z,23.68
2022-08-12T19:03:39.795Z,23.70
2022-08-12T19:06:07.854Z,23.71
2022-08-12T19:08:46.971Z,23.73
2022-08-12T19:11:33.604Z,23.75
2022-08-12T19:14:20.938Z,23.80
2022-08-12T19:16:52.805Z,23.85
2022-08-12T19:19:19.760Z,23.87
2022-08-12T19:21:53.497Z,23.90
2022-08-12T19:24:42.846Z,23.92
2022-08-12T19:27:10.603Z,23.95
2022-08-12T19:29:44.406Z,23.97
2022-08-12T19:32:31.353Z,23.98
2022-08-12T19:38:04.106Z,24.00
2022-08-12T19:40:34.849Z,24.00
2022-08-12T19:43:16.211Z,24.00
2022-08-12T19:45:56.217Z,23.98
2022-08-12T19:48:27.427Z,23.96
2022-08-12T19:50:56.874Z,23.95
2022-08-12T19:53:24.748Z,23.93
2022-08-12T19:55:53.424Z,23.91
2022-08-12T19:58:21.383Z,23.88
2022-08-12T20:00:53.669Z,23.86
2022-08-12T20:03:39.114Z,23.85
2022-08-12T20:06:15.520Z,23.84
2022-08-12T20:08:49.355Z,23.83
2022-08-12T20:12:11.962Z,23.81
2022-08-12T20:14:18.557Z,23.77
2022-08-12T20:17:02.084Z,23.74
2022-08-12T20:20:04.051Z,23.72
2022-08-12T20:22:24.217Z,23.72
2022-08-12T20:24:58.106Z,23.71
2022-08-12T20:28:03.383Z,23.70
2022-08-12T20:30:15.746Z,23.69
2022-08-12T20:32:55.946Z,23.68
2022-08-12T20:35:24.568Z,23.66
2022-08-12T20:38:07.457Z,23.65
2022-08-12T20:40:40.446Z,23.62
2022-08-12T20:43:08.801Z,23.62
2022-08-12T20:45:50.618Z,23.61
2022-08-12T20:48:25.351Z,23.60
2022-08-12T20:50:56.273Z,23.59
2022-08-12T20:53:33.335Z,23.58
2022-08-12T20:56:19.534Z,23.58
2022-08-12T20:58:46.724Z,23.55
2022-08-12T21:01:15.392Z,23.54
2022-08-12T21:04:05.402Z,23.53
2022-08-12T21:06:50.990Z,23.53
2022-08-12T21:09:22.514Z,23.53
2022-08-12T21:11:55.946Z,23.52
2022-08-12T21:14:39.776Z,23.52
2022-08-12T21:17:15.904Z,23.52
2022-08-12T21:19:51.736Z,23.52
2022-08-12T21:22:24.550Z,23.50
2022-08-12T21:24:53.143Z,23.50
2022-08-12T21:27:58.885Z,23.51
2022-08-12T21:30:17.913Z,23.55
2022-08-12T21:32:45.987Z,23.56
2022-08-12T21:35:19.151Z,23.56
2022-08-12T21:37:53.146Z,23.56
2022-08-12T21:40:20.696Z,23.55
2022-08-12T21:43:05.736Z,23.54
2022-08-12T21:45:48.078Z,23.54
2022-08-12T21:48:24.623Z,23.55
2022-08-12T21:50:53.214Z,23.57
2022-08-12T21:53:23.341Z,23.57
2022-08-12T21:56:10.664Z,23.56
2022-08-12T21:58:57.577Z,23.54
2022-08-12T22:01:24.653Z,23.54
2022-08-12T22:04:12.730Z,23.53
2022-08-12T22:06:43.812Z,23.49
2022-08-12T22:09:16.063Z,23.42
2022-08-12T22:11:56.502Z,23.41
2022-08-12T22:14:29.797Z,23.40
2022-08-12T22:16:57.280Z,23.36
2022-08-12T22:19:24.297Z,23.36
2022-08-12T22:21:54.391Z,23.35
2022-08-12T22:24:26.568Z,23.35
2022-08-12T22:27:08.020Z,23.35
2022-08-12T22:30:04.163Z,23.35
2022-08-12T22:32:31.164Z,23.33
2022-08-12T22:35:23.120Z,23.30
2022-08-12T22:37:56.195Z,23.33
2022-08-12T22:40:23.720Z,23.32
2022-08-12T22:43:15.535Z,23.31
2022-08-12T22:46:03.546Z,23.30
2022-08-12T22:48:30.819Z,23.29
2022-08-12T22:50:59.401Z,23.28
2022-08-12T22:53:36.171Z,23.28
2022-08-12T22:56:08.557Z,23.27
2022-08-12T22:58:41.666Z,23.26
2022-08-12T23:01:11.175Z,23.27
2022-08-12T23:03:48.601Z,23.28
2022-08-12T23:06:23.971Z,23.25
2022-08-12T23:08:52.185Z,23.25
2022-08-12T23:11:23.625Z,23.26
2022-08-12T23:14:03.386Z,23.26
2022-08-12T23:16:33.492Z,23.26
2022-08-12T23:19:10.763Z,23.27
2022-08-12T23:22:06.018Z,23.29
2022-08-12T23:24:53.976Z,23.28
2022-08-12T23:27:52.257Z,23.29
2022-08-12T23:30:31.384Z,23.30
2022-08-12T23:33:01.751Z,23.34
2022-08-12T23:35:53.448Z,23.35
2022-08-12T23:38:30.136Z,23.34
2022-08-12T23:41:00.641Z,23.29
2022-08-12T23:43:39.130Z,23.28
2022-08-12T23:46:19.304Z,23.27
2022-08-12T23:48:47.989Z,23.25
2022-08-12T23:51:22.241Z,23.24
